sensor_id;sensor_type;location;lat;lon;timestamp;P1;durP1;ratioP1;P2;durP2;ratioP2
70924;SDS011;58577;52.410;13.242;2022-07-05T00:00:08;8.02;;;4.70;;
70924;SDS011;58577;52.410;13.242;2022-07-05T00:02:41;9.18;;;4.80;;
70924;SDS011;58577;52.410;13.242;2022-07-05T00:05:07;9.23;;;5.32;;
70924;SDS011;58577;52.410;13.242;2022-07-05T00:07:35;6.78;;;4.43;;
70924;SDS011;58577;52.410;13.242;2022-07-05T00:10:01;5.95;;;4.25;;
70924;SDS011;58577;52.410;13.242;2022-07-05T00:12:28;8.27;;;4.35;;
70924;SDS011;58577;52.410;13.242;2022-07-05T00:14:57;7.28;;;4.43;;
70924;SDS011;58577;52.410;13.242;2022-07-05T00:17:24;4.78;;;4.28;;
70924;SDS011;58577;52.410;13.242;2022-07-05T00:19:51;7.75;;;5.18;;
70924;SDS011;58577;52.410;13.242;2022-07-05T00:22:16;7.55;;;5.00;;
70924;SDS011;58577;52.410;13.242;2022-07-05T00:24:42;8.52;;;4.97;;
70924;SDS011;58577;52.410;13.242;2022-07-05T00:27:08;7.78;;;5.10;;
70924;SDS011;58577;52.410;13.242;2022-07-05T00:29:33;6.57;;;4.90;;
70924;SDS011;58577;52.410;13.242;2022-07-05T00:31:59;7.78;;;5.00;;
70924;SDS011;58577;52.410;13.242;2022-07-05T00:34:24;9.35;;;5.50;;
70924;SDS011;58577;52.410;13.242;2022-07-05T00:36:50;8.70;;;5.63;;
70924;SDS011;58577;52.410;13.242;2022-07-05T00:39:15;9.77;;;5.80;;
70924;SDS011;58577;52.410;13.242;2022-07-05T00:41:41;7.78;;;5.65;;
70924;SDS011;58577;52.410;13.242;2022-07-05T00:44:08;9.00;;;5.93;;
70924;SDS011;58577;52.410;13.242;2022-07-05T00:46:36;7.63;;;6.10;;
70924;SDS011;58577;52.410;13.242;2022-07-05T00:49:03;9.57;;;6.47;;
70924;SDS011;58577;52.410;13.242;2022-07-05T00:51:30;9.18;;;6.57;;
70924;SDS011;58577;52.410;13.242;2022-07-05T00:53:57;10.68;;;6.22;;
70924;SDS011;58577;52.410;13.242;2022-07-05T00:56:24;9.77;;;6.45;;
70924;SDS011;58577;52.410;13.242;2022-07-05T00:58:50;9.05;;;6.18;;
70924;SDS011;58577;52.410;13.242;2022-07-05T01:01:17;8.63;;;5.88;;
70924;SDS011;58577;52.410;13.242;2022-07-05T01:03:44;9.13;;;5.82;;
70924;SDS011;58577;52.410;13.242;2022-07-05T01:06:11;9.63;;;5.88;;
70924;SDS011;58577;52.410;13.242;2022-07-05T01:08:38;10.20;;;5.97;;
70924;SDS011;58577;52.410;13.242;2022-07-05T01:11:06;9.35;;;6.20;;
70924;SDS011;58577;52.410;13.242;2022-07-05T01:13:36;9.52;;;5.75;;
70924;SDS011;58577;52.410;13.242;2022-07-05T01:16:03;8.80;;;6.28;;
70924;SDS011;58577;52.410;13.242;2022-07-05T01:18:30;8.70;;;5.50;;
70924;SDS011;58577;52.410;13.242;2022-07-05T01:21:01;6.65;;;5.47;;
70924;SDS011;58577;52.410;13.242;2022-07-05T01:23:28;7.68;;;5.35;;
70924;SDS011;58577;52.410;13.242;2022-07-05T01:25:55;8.20;;;6.10;;
70924;SDS011;58577;52.410;13.242;2022-07-05T01:28:23;8.40;;;5.88;;
70924;SDS011;58577;52.410;13.242;2022-07-05T01:30:49;9.48;;;6.10;;
70924;SDS011;58577;52.410;13.242;2022-07-05T01:33:16;7.10;;;5.38;;
70924;SDS011;58577;52.410;13.242;2022-07-05T01:35:42;9.15;;;5.35;;
70924;SDS011;58577;52.410;13.242;2022-07-05T01:38:09;10.93;;;5.57;;
70924;SDS011;58577;52.410;13.242;2022-07-05T01:40:36;7.78;;;5.43;;
70924;SDS011;58577;52.410;13.242;2022-07-05T01:43:02;5.38;;;4.80;;
70924;SDS011;58577;52.410;13.242;2022-07-05T01:45:28;6.97;;;5.15;;
70924;SDS011;58577;52.410;13.242;2022-07-05T01:48:14;7.18;;;5.05;;
70924;SDS011;58577;52.410;13.242;2022-07-05T01:50:49;5.50;;;4.88;;
70924;SDS011;58577;52.410;13.242;2022-07-05T01:53:21;8.88;;;5.25;;
70924;SDS011;58577;52.410;13.242;2022-07-05T01:55:49;7.25;;;5.03;;
70924;SDS011;58577;52.410;13.242;2022-07-05T01:58:15;7.18;;;4.80;;
70924;SDS011;58577;52.410;13.242;2022-07-05T02:00:42;5.20;;;4.60;;
70924;SDS011;58577;52.410;13.242;2022-07-05T02:03:07;8.50;;;5.32;;
70924;SDS011;58577;52.410;13.242;2022-07-05T02:05:34;7.32;;;4.95;;
70924;SDS011;58577;52.410;13.242;2022-07-05T02:07:59;7.15;;;4.70;;
70924;SDS011;58577;52.410;13.242;2022-07-05T02:10:25;6.70;;;4.70;;
70924;SDS011;58577;52.410;13.242;2022-07-05T02:12:50;8.15;;;4.80;;
70924;SDS011;58577;52.410;13.242;2022-07-05T02:15:16;6.88;;;5.15;;
70924;SDS011;58577;52.410;13.242;2022-07-05T02:17:42;7.15;;;4.70;;
70924;SDS011;58577;52.410;13.242;2022-07-05T02:20:09;6.10;;;4.95;;
70924;SDS011;58577;52.410;13.242;2022-07-05T02:22:35;5.90;;;4.30;;
70924;SDS011;58577;52.410;13.242;2022-07-05T02:25:01;6.03;;;4.30;;
70924;SDS011;58577;52.410;13.242;2022-07-05T02:27:27;5.72;;;4.10;;
70924;SDS011;58577;52.410;13.242;2022-07-05T02:29:52;6.15;;;4.35;;
70924;SDS011;58577;52.410;13.242;2022-07-05T02:32:24;8.07;;;4.90;;
70924;SDS011;58577;52.410;13.242;2022-07-05T02:34:50;5.35;;;4.30;;
70924;SDS011;58577;52.410;13.242;2022-07-05T02:37:16;8.43;;;4.80;;
70924;SDS011;58577;52.410;13.242;2022-07-05T02:39:42;6.80;;;4.05;;
70924;SDS011;58577;52.410;13.242;2022-07-05T02:42:09;6.65;;;4.25;;
70924;SDS011;58577;52.410;13.242;2022-07-05T02:44:34;5.20;;;3.88;;
70924;SDS011;58577;52.410;13.242;2022-07-05T02:47:00;4.10;;;3.42;;
70924;SDS011;58577;52.410;13.242;2022-07-05T02:49:29;4.53;;;3.80;;
70924;SDS011;58577;52.410;13.242;2022-07-05T02:51:55;5.93;;;4.10;;
70924;SDS011;58577;52.410;13.242;2022-07-05T02:54:21;4.95;;;4.00;;
70924;SDS011;58577;52.410;13.242;2022-07-05T02:56:48;4.05;;;3.65;;
70924;SDS011;58577;52.410;13.242;2022-07-05T02:59:15;5.75;;;4.03;;
70924;SDS011;58577;52.410;13.242;2022-07-05T03:01:41;6.90;;;3.40;;
70924;SDS011;58577;52.410;13.242;2022-07-05T03:04:11;6.78;;;3.67;;
70924;SDS011;58577;52.410;13.242;2022-07-05T03:06:40;4.53;;;3.53;;
70924;SDS011;58577;52.410;13.242;2022-07-05T03:09:05;4.32;;;3.60;;
70924;SDS011;58577;52.410;13.242;2022-07-05T03:11:31;5.13;;;3.60;;
70924;SDS011;58577;52.410;13.242;2022-07-05T03:13:57;4.10;;;3.70;;
70924;SDS011;58577;52.410;13.242;2022-07-05T03:16:23;6.18;;;3.67;;
70924;SDS011;58577;52.410;13.242;2022-07-05T03:18:50;5.97;;;3.90;;
70924;SDS011;58577;52.410;13.242;2022-07-05T03:21:16;5.93;;;3.63;;
70924;SDS011;58577;52.410;13.242;2022-07-05T03:23:42;4.45;;;3.80;;
70924;SDS011;58577;52.410;13.242;2022-07-05T03:26:08;5.13;;;3.97;;
70924;SDS011;58577;52.410;13.242;2022-07-05T03:28:34;7.43;;;3.92;;
70924;SDS011;58577;52.410;13.242;2022-07-05T03:31:00;7.32;;;4.10;;
70924;SDS011;58577;52.410;13.242;2022-07-05T03:33:26;6.25;;;3.60;;
70924;SDS011;58577;52.410;13.242;2022-07-05T03:35:52;7.30;;;4.20;;
70924;SDS011;58577;52.410;13.242;2022-07-05T03:38:18;6.03;;;4.05;;
70924;SDS011;58577;52.410;13.242;2022-07-05T03:40:44;5.43;;;3.63;;
70924;SDS011;58577;52.410;13.242;2022-07-05T03:43:10;6.00;;;3.83;;
70924;SDS011;58577;52.410;13.242;2022-07-05T03:45:37;5.75;;;3.80;;
70924;SDS011;58577;52.410;13.242;2022-07-05T03:48:04;4.20;;;3.70;;
70924;SDS011;58577;52.410;13.242;2022-07-05T03:50:32;7.07;;;3.90;;
70924;SDS011;58577;52.410;13.242;2022-07-05T03:52:57;6.63;;;3.90;;
70924;SDS011;58577;52.410;13.242;2022-07-05T03:55:23;5.90;;;3.67;;
70924;SDS011;58577;52.410;13.242;2022-07-05T03:57:49;5.07;;;3.92;;
70924;SDS011;58577;52.410;13.242;2022-07-05T04:00:16;5.40;;;4.05;;
70924;SDS011;58577;52.410;13.242;2022-07-05T04:02:50;8.23;;;4.10;;
70924;SDS011;58577;52.410;13.242;2022-07-05T04:05:16;5.63;;;4.28;;
70924;SDS011;58577;52.410;13.242;2022-07-05T04:07:47;9.18;;;4.03;;
70924;SDS011;58577;52.410;13.242;2022-07-05T04:10:18;5.65;;;3.97;;
70924;SDS011;58577;52.410;13.242;2022-07-05T04:12:45;7.43;;;4.20;;
70924;SDS011;58577;52.410;13.242;2022-07-05T04:15:12;7.28;;;4.38;;
70924;SDS011;58577;52.410;13.242;2022-07-05T04:17:48;7.43;;;4.20;;
70924;SDS011;58577;52.410;13.242;2022-07-05T04:20:19;7.75;;;4.32;;
70924;SDS011;58577;52.410;13.242;2022-07-05T04:22:49;6.70;;;4.18;;
70924;SDS011;58577;52.410;13.242;2022-07-05T04:25:17;5.18;;;3.90;;
70924;SDS011;58577;52.410;13.242;2022-07-05T04:27:47;6.00;;;3.80;;
70924;SDS011;58577;52.410;13.242;2022-07-05T04:30:14;9.68;;;4.43;;
70924;SDS011;58577;52.410;13.242;2022-07-05T04:32:41;6.28;;;4.00;;
70924;SDS011;58577;52.410;13.242;2022-07-05T04:35:07;7.00;;;4.40;;
70924;SDS011;58577;52.410;13.242;2022-07-05T04:37:33;7.93;;;4.28;;
70924;SDS011;58577;52.410;13.242;2022-07-05T04:39:59;7.13;;;4.20;;
70924;SDS011;58577;52.410;13.242;2022-07-05T04:42:24;8.27;;;4.53;;
70924;SDS011;58577;52.410;13.242;2022-07-05T04:44:50;16.42;;;7.97;;
70924;SDS011;58577;52.410;13.242;2022-07-05T04:47:16;7.65;;;4.38;;
70924;SDS011;58577;52.410;13.242;2022-07-05T04:49:41;15.52;;;8.40;;
70924;SDS011;58577;52.410;13.242;2022-07-05T04:52:10;9.63;;;4.88;;
70924;SDS011;58577;52.410;13.242;2022-07-05T04:54:36;7.50;;;4.60;;
70924;SDS011;58577;52.410;13.242;2022-07-05T04:57:02;8.55;;;4.10;;
70924;SDS011;58577;52.410;13.242;2022-07-05T04:59:28;10.73;;;4.50;;
70924;SDS011;58577;52.410;13.242;2022-07-05T05:01:54;15.93;;;6.97;;
70924;SDS011;58577;52.410;13.242;2022-07-05T05:04:19;10.25;;;5.05;;
70924;SDS011;58577;52.410;13.242;2022-07-05T05:06:45;11.02;;;5.05;;
70924;SDS011;58577;52.410;13.242;2022-07-05T05:09:10;10.95;;;5.15;;
70924;SDS011;58577;52.410;13.242;2022-07-05T05:11:36;9.80;;;4.20;;
70924;SDS011;58577;52.410;13.242;2022-07-05T05:14:01;7.38;;;4.30;;
70924;SDS011;58577;52.410;13.242;2022-07-05T05:16:27;7.03;;;3.90;;
70924;SDS011;58577;52.410;13.242;2022-07-05T05:18:53;6.88;;;3.88;;
70924;SDS011;58577;52.410;13.242;2022-07-05T05:21:18;8.68;;;3.97;;
70924;SDS011;58577;52.410;13.242;2022-07-05T05:23:44;6.70;;;3.70;;
70924;SDS011;58577;52.410;13.242;2022-07-05T05:26:09;7.40;;;3.65;;
70924;SDS011;58577;52.410;13.242;2022-07-05T05:28:35;8.00;;;3.58;;
70924;SDS011;58577;52.410;13.242;2022-07-05T05:31:00;8.90;;;3.70;;
70924;SDS011;58577;52.410;13.242;2022-07-05T05:33:26;8.00;;;3.38;;
70924;SDS011;58577;52.410;13.242;2022-07-05T05:35:51;5.20;;;3.00;;
70924;SDS011;58577;52.410;13.242;2022-07-05T05:38:17;6.40;;;2.83;;
70924;SDS011;58577;52.410;13.242;2022-07-05T05:40:42;4.80;;;2.75;;
70924;SDS011;58577;52.410;13.242;2022-07-05T05:43:09;4.35;;;2.70;;
70924;SDS011;58577;52.410;13.242;2022-07-05T05:45:35;4.75;;;2.72;;
70924;SDS011;58577;52.410;13.242;2022-07-05T05:48:01;5.30;;;2.72;;
70924;SDS011;58577;52.410;13.242;2022-07-05T05:50:31;6.07;;;3.05;;
70924;SDS011;58577;52.410;13.242;2022-07-05T05:52:59;5.82;;;2.60;;
70924;SDS011;58577;52.410;13.242;2022-07-05T05:55:28;9.10;;;4.50;;
70924;SDS011;58577;52.410;13.242;2022-07-05T05:57:54;4.40;;;2.50;;
70924;SDS011;58577;52.410;13.242;2022-07-05T06:00:22;4.75;;;2.50;;
70924;SDS011;58577;52.410;13.242;2022-07-05T06:02:48;2.65;;;2.38;;
70924;SDS011;58577;52.410;13.242;2022-07-05T06:05:14;2.33;;;2.13;;
70924;SDS011;58577;52.410;13.242;2022-07-05T06:07:51;3.97;;;2.25;;
70924;SDS011;58577;52.410;13.242;2022-07-05T06:10:17;4.50;;;2.45;;
70924;SDS011;58577;52.410;13.242;2022-07-05T06:12:50;3.88;;;2.45;;
70924;SDS011;58577;52.410;13.242;2022-07-05T06:15:17;4.13;;;2.50;;
70924;SDS011;58577;52.410;13.242;2022-07-05T06:17:43;4.05;;;2.60;;
70924;SDS011;58577;52.410;13.242;2022-07-05T06:20:10;3.42;;;2.53;;
70924;SDS011;58577;52.410;13.242;2022-07-05T06:22:37;3.50;;;2.65;;
70924;SDS011;58577;52.410;13.242;2022-07-05T06:25:03;18.63;;;8.90;;
70924;SDS011;58577;52.410;13.242;2022-07-05T06:27:29;6.07;;;3.08;;
70924;SDS011;58577;52.410;13.242;2022-07-05T06:29:55;4.38;;;2.60;;
70924;SDS011;58577;52.410;13.242;2022-07-05T06:32:21;3.55;;;2.42;;
70924;SDS011;58577;52.410;13.242;2022-07-05T06:34:47;5.60;;;2.22;;
70924;SDS011;58577;52.410;13.242;2022-07-05T06:37:12;2.90;;;2.25;;
70924;SDS011;58577;52.410;13.242;2022-07-05T06:39:38;4.78;;;2.75;;
70924;SDS011;58577;52.410;13.242;2022-07-05T06:42:04;4.78;;;2.30;;
70924;SDS011;58577;52.410;13.242;2022-07-05T06:44:29;3.50;;;2.20;;
70924;SDS011;58577;52.410;13.242;2022-07-05T06:46:55;4.43;;;2.20;;
70924;SDS011;58577;52.410;13.242;2022-07-05T06:49:20;5.30;;;2.30;;
70924;SDS011;58577;52.410;13.242;2022-07-05T06:51:46;3.78;;;2.40;;
70924;SDS011;58577;52.410;13.242;2022-07-05T06:54:12;5.13;;;2.08;;
70924;SDS011;58577;52.410;13.242;2022-07-05T06:56:37;2.78;;;2.20;;
70924;SDS011;58577;52.410;13.242;2022-07-05T06:59:03;3.30;;;2.22;;
70924;SDS011;58577;52.410;13.242;2022-07-05T07:01:28;4.95;;;2.10;;
70924;SDS011;58577;52.410;13.242;2022-07-05T07:03:54;3.78;;;2.20;;
70924;SDS011;58577;52.410;13.242;2022-07-05T07:06:19;4.50;;;2.10;;
70924;SDS011;58577;52.410;13.242;2022-07-05T07:08:45;2.22;;;2.13;;
70924;SDS011;58577;52.410;13.242;2022-07-05T07:11:30;4.97;;;2.20;;
70924;SDS011;58577;52.410;13.242;2022-07-05T07:13:56;4.97;;;2.28;;
70924;SDS011;58577;52.410;13.242;2022-07-05T07:16:22;3.22;;;2.20;;
70924;SDS011;58577;52.410;13.242;2022-07-05T07:18:48;4.07;;;2.10;;
70924;SDS011;58577;52.410;13.242;2022-07-05T07:21:13;3.83;;;2.17;;
70924;SDS011;58577;52.410;13.242;2022-07-05T07:23:39;3.58;;;2.00;;
70924;SDS011;58577;52.410;13.242;2022-07-05T07:26:04;2.97;;;2.25;;
70924;SDS011;58577;52.410;13.242;2022-07-05T07:28:30;2.97;;;2.20;;
70924;SDS011;58577;52.410;13.242;2022-07-05T07:30:56;2.53;;;2.15;;
70924;SDS011;58577;52.410;13.242;2022-07-05T07:33:21;2.58;;;2.38;;
70924;SDS011;58577;52.410;13.242;2022-07-05T07:35:47;4.95;;;2.20;;
70924;SDS011;58577;52.410;13.242;2022-07-05T07:38:12;3.40;;;2.00;;
70924;SDS011;58577;52.410;13.242;2022-07-05T07:40:38;2.47;;;2.08;;
70924;SDS011;58577;52.410;13.242;2022-07-05T07:43:03;3.65;;;2.13;;
70924;SDS011;58577;52.410;13.242;2022-07-05T07:45:29;5.05;;;2.28;;
70924;SDS011;58577;52.410;13.242;2022-07-05T07:47:56;3.00;;;2.30;;
70924;SDS011;58577;52.410;13.242;2022-07-05T07:50:22;3.28;;;2.17;;
70924;SDS011;58577;52.410;13.242;2022-07-05T07:52:47;3.90;;;2.30;;
70924;SDS011;58577;52.410;13.242;2022-07-05T07:55:14;3.55;;;2.17;;
70924;SDS011;58577;52.410;13.242;2022-07-05T07:57:40;3.00;;;2.20;;
70924;SDS011;58577;52.410;13.242;2022-07-05T08:00:06;2.75;;;1.92;;
70924;SDS011;58577;52.410;13.242;2022-07-05T08:02:37;2.80;;;2.33;;
70924;SDS011;58577;52.410;13.242;2022-07-05T08:05:02;2.47;;;2.13;;
70924;SDS011;58577;52.410;13.242;2022-07-05T08:07:30;2.60;;;2.03;;
70924;SDS011;58577;52.410;13.242;2022-07-05T08:09:55;5.75;;;2.13;;
70924;SDS011;58577;52.410;13.242;2022-07-05T08:12:21;3.88;;;2.25;;
70924;SDS011;58577;52.410;13.242;2022-07-05T08:14:46;2.78;;;2.20;;
70924;SDS011;58577;52.410;13.242;2022-07-05T08:17:12;4.78;;;2.28;;
70924;SDS011;58577;52.410;13.242;2022-07-05T08:19:38;2.85;;;2.13;;
70924;SDS011;58577;52.410;13.242;2022-07-05T08:22:22;6.03;;;3.22;;
70924;SDS011;58577;52.410;13.242;2022-07-05T08:24:48;2.83;;;2.10;;
70924;SDS011;58577;52.410;13.242;2022-07-05T08:27:15;4.47;;;2.10;;
70924;SDS011;58577;52.410;13.242;2022-07-05T08:29:41;2.33;;;2.10;;
70924;SDS011;58577;52.410;13.242;2022-07-05T08:32:07;4.25;;;2.30;;
70924;SDS011;58577;52.410;13.242;2022-07-05T08:34:33;3.83;;;1.98;;
70924;SDS011;58577;52.410;13.242;2022-07-05T08:36:59;2.92;;;2.17;;
70924;SDS011;58577;52.410;13.242;2022-07-05T08:39:24;4.97;;;2.30;;
70924;SDS011;58577;52.410;13.242;2022-07-05T08:41:50;3.50;;;3.03;;
70924;SDS011;58577;52.410;13.242;2022-07-05T08:44:19;3.05;;;2.40;;
70924;SDS011;58577;52.410;13.242;2022-07-05T08:46:47;2.92;;;2.33;;
70924;SDS011;58577;52.410;13.242;2022-07-05T08:49:15;2.40;;;2.20;;
70924;SDS011;58577;52.410;13.242;2022-07-05T08:51:46;4.18;;;2.60;;
70924;SDS011;58577;52.410;13.242;2022-07-05T08:54:13;5.20;;;2.60;;
70924;SDS011;58577;52.410;13.242;2022-07-05T08:56:42;4.53;;;2.40;;
70924;SDS011;58577;52.410;13.242;2022-07-05T08:59:09;11.52;;;3.95;;
70924;SDS011;58577;52.410;13.242;2022-07-05T09:01:35;16.42;;;10.77;;
70924;SDS011;58577;52.410;13.242;2022-07-05T09:04:05;5.22;;;2.10;;
70924;SDS011;58577;52.410;13.242;2022-07-05T09:06:35;5.22;;;2.50;;
70924;SDS011;58577;52.410;13.242;2022-07-05T09:09:03;5.80;;;2.63;;
70924;SDS011;58577;52.410;13.242;2022-07-05T09:14:06;3.97;;;2.40;;
70924;SDS011;58577;52.410;13.242;2022-07-05T09:16:42;4.20;;;2.45;;
70924;SDS011;58577;52.410;13.242;2022-07-05T09:19:08;3.90;;;2.33;;
70924;SDS011;58577;52.410;13.242;2022-07-05T09:21:34;4.93;;;2.30;;
70924;SDS011;58577;52.410;13.242;2022-07-05T09:24:03;5.78;;;2.40;;
70924;SDS011;58577;52.410;13.242;2022-07-05T09:26:37;5.97;;;2.63;;
70924;SDS011;58577;52.410;13.242;2022-07-05T09:29:11;2.20;;;2.08;;
70924;SDS011;58577;52.410;13.242;2022-07-05T09:31:41;3.25;;;2.33;;
70924;SDS011;58577;52.410;13.242;2022-07-05T09:34:09;3.88;;;2.20;;
70924;SDS011;58577;52.410;13.242;2022-07-05T09:36:52;6.18;;;2.47;;
70924;SDS011;58577;52.410;13.242;2022-07-05T09:44:47;2.35;;;2.10;;
70924;SDS011;58577;52.410;13.242;2022-07-05T09:47:15;4.93;;;2.22;;
70924;SDS011;58577;52.410;13.242;2022-07-05T09:49:52;4.45;;;2.40;;
70924;SDS011;58577;52.410;13.242;2022-07-05T09:52:29;5.45;;;2.65;;
70924;SDS011;58577;52.410;13.242;2022-07-05T09:55:08;4.20;;;2.30;;
70924;SDS011;58577;52.410;13.242;2022-07-05T09:57:35;4.82;;;2.33;;
70924;SDS011;58577;52.410;13.242;2022-07-05T10:00:06;4.22;;;2.40;;
70924;SDS011;58577;52.410;13.242;2022-07-05T10:05:15;8.30;;;2.35;;
70924;SDS011;58577;52.410;13.242;2022-07-05T10:07:48;5.43;;;2.47;;
70924;SDS011;58577;52.410;13.242;2022-07-05T10:10:22;4.82;;;2.55;;
70924;SDS011;58577;52.410;13.242;2022-07-05T10:12:53;4.68;;;2.47;;
70924;SDS011;58577;52.410;13.242;2022-07-05T10:15:26;4.07;;;2.28;;
70924;SDS011;58577;52.410;13.242;2022-07-05T10:18:04;4.97;;;2.15;;
70924;SDS011;58577;52.410;13.242;2022-07-05T10:20:42;2.30;;;2.20;;
70924;SDS011;58577;52.410;13.242;2022-07-05T10:23:10;4.97;;;2.45;;
70924;SDS011;58577;52.410;13.242;2022-07-05T10:25:41;3.92;;;2.88;;
70924;SDS011;58577;52.410;13.242;2022-07-05T10:28:08;2.60;;;2.40;;
70924;SDS011;58577;52.410;13.242;2022-07-05T10:30:35;4.05;;;2.80;;
70924;SDS011;58577;52.410;13.242;2022-07-05T10:33:02;4.25;;;2.53;;
70924;SDS011;58577;52.410;13.242;2022-07-05T10:35:29;7.55;;;2.53;;
70924;SDS011;58577;52.410;13.242;2022-07-05T10:37:55;4.95;;;2.63;;
70924;SDS011;58577;52.410;13.242;2022-07-05T10:40:22;3.88;;;2.78;;
70924;SDS011;58577;52.410;13.242;2022-07-05T10:43:05;3.05;;;2.50;;
70924;SDS011;58577;52.410;13.242;2022-07-05T10:45:37;4.22;;;3.13;;
70924;SDS011;58577;52.410;13.242;2022-07-05T10:50:53;3.53;;;2.70;;
70924;SDS011;58577;52.410;13.242;2022-07-05T11:06:27;3.25;;;2.60;;
70924;SDS011;58577;52.410;13.242;2022-07-05T11:11:28;6.03;;;2.80;;
70924;SDS011;58577;52.410;13.242;2022-07-05T11:13:56;3.45;;;2.90;;
70924;SDS011;58577;52.410;13.242;2022-07-05T11:21:37;3.90;;;2.50;;
70924;SDS011;58577;52.410;13.242;2022-07-05T11:26:50;4.05;;;2.63;;
70924;SDS011;58577;52.410;13.242;2022-07-05T11:32:07;4.60;;;2.45;;
70924;SDS011;58577;52.410;13.242;2022-07-05T11:34:36;4.28;;;2.58;;
70924;SDS011;58577;52.410;13.242;2022-07-05T11:39:39;4.20;;;2.60;;
70924;SDS011;58577;52.410;13.242;2022-07-05T11:42:05;2.70;;;2.30;;
70924;SDS011;58577;52.410;13.242;2022-07-05T11:44:33;4.32;;;2.47;;
70924;SDS011;58577;52.410;13.242;2022-07-05T11:47:00;4.47;;;2.80;;
70924;SDS011;58577;52.410;13.242;2022-07-05T11:49:26;5.60;;;2.70;;
70924;SDS011;58577;52.410;13.242;2022-07-05T11:54:25;6.65;;;2.90;;
70924;SDS011;58577;52.410;13.242;2022-07-05T11:56:51;4.03;;;2.65;;
70924;SDS011;58577;52.410;13.242;2022-07-05T11:59:17;6.05;;;2.72;;
70924;SDS011;58577;52.410;13.242;2022-07-05T12:01:46;4.40;;;2.70;;
70924;SDS011;58577;52.410;13.242;2022-07-05T12:04:20;2.97;;;2.40;;
70924;SDS011;58577;52.410;13.242;2022-07-05T12:06:50;3.33;;;2.40;;
70924;SDS011;58577;52.410;13.242;2022-07-05T12:09:19;2.60;;;2.40;;
70924;SDS011;58577;52.410;13.242;2022-07-05T12:11:54;4.13;;;2.65;;
70924;SDS011;58577;52.410;13.242;2022-07-05T12:14:51;3.97;;;2.60;;
70924;SDS011;58577;52.410;13.242;2022-07-05T12:17:18;2.85;;;2.50;;
70924;SDS011;58577;52.410;13.242;2022-07-05T12:19:45;3.50;;;2.50;;
70924;SDS011;58577;52.410;13.242;2022-07-05T12:22:16;3.58;;;2.40;;
70924;SDS011;58577;52.410;13.242;2022-07-05T12:24:42;4.97;;;2.60;;
70924;SDS011;58577;52.410;13.242;2022-07-05T12:27:09;3.40;;;2.58;;
70924;SDS011;58577;52.410;13.242;2022-07-05T12:29:35;3.88;;;2.35;;
70924;SDS011;58577;52.410;13.242;2022-07-05T12:32:02;2.72;;;2.40;;
70924;SDS011;58577;52.410;13.242;2022-07-05T12:34:33;2.72;;;2.50;;
70924;SDS011;58577;52.410;13.242;2022-07-05T12:36:59;4.60;;;2.60;;
70924;SDS011;58577;52.410;13.242;2022-07-05T12:39:25;4.00;;;2.40;;
70924;SDS011;58577;52.410;13.242;2022-07-05T12:41:51;3.70;;;2.40;;
70924;SDS011;58577;52.410;13.242;2022-07-05T12:44:19;2.42;;;2.33;;
70924;SDS011;58577;52.410;13.242;2022-07-05T12:46:46;4.87;;;2.50;;
70924;SDS011;58577;52.410;13.242;2022-07-05T12:49:14;3.33;;;2.42;;
70924;SDS011;58577;52.410;13.242;2022-07-05T12:51:40;2.67;;;2.47;;
70924;SDS011;58577;52.410;13.242;2022-07-05T12:54:07;4.57;;;2.20;;
70924;SDS011;58577;52.410;13.242;2022-07-05T12:57:04;3.63;;;2.30;;
70924;SDS011;58577;52.410;13.242;2022-07-05T13:00:03;4.50;;;2.30;;
70924;SDS011;58577;52.410;13.242;2022-07-05T13:02:40;2.90;;;2.30;;
70924;SDS011;58577;52.410;13.242;2022-07-05T13:05:08;4.05;;;2.30;;
70924;SDS011;58577;52.410;13.242;2022-07-05T13:07:41;3.28;;;2.35;;
70924;SDS011;58577;52.410;13.242;2022-07-05T13:12:50;3.63;;;2.40;;
70924;SDS011;58577;52.410;13.242;2022-07-05T13:15:16;3.08;;;2.40;;
70924;SDS011;58577;52.410;13.242;2022-07-05T13:17:42;2.60;;;2.40;;
70924;SDS011;58577;52.410;13.242;2022-07-05T13:20:08;4.00;;;2.47;;
70924;SDS011;58577;52.410;13.242;2022-07-05T13:22:34;3.78;;;2.78;;
70924;SDS011;58577;52.410;13.242;2022-07-05T13:25:02;4.97;;;2.60;;
70924;SDS011;58577;52.410;13.242;2022-07-05T13:27:29;4.15;;;2.33;;
70924;SDS011;58577;52.410;13.242;2022-07-05T13:29:54;3.92;;;2.42;;
70924;SDS011;58577;52.410;13.242;2022-07-05T13:32:20;4.57;;;2.40;;
70924;SDS011;58577;52.410;13.242;2022-07-05T13:34:47;3.03;;;2.35;;
70924;SDS011;58577;52.410;13.242;2022-07-05T13:37:14;5.70;;;2.70;;
70924;SDS011;58577;52.410;13.242;2022-07-05T13:39:39;3.95;;;2.53;;
70924;SDS011;58577;52.410;13.242;2022-07-05T13:42:05;4.25;;;2.67;;
70924;SDS011;58577;52.410;13.242;2022-07-05T13:44:31;3.20;;;2.55;;
70924;SDS011;58577;52.410;13.242;2022-07-05T13:46:57;5.63;;;2.40;;
70924;SDS011;58577;52.410;13.242;2022-07-05T13:49:22;4.68;;;3.08;;
70924;SDS011;58577;52.410;13.242;2022-07-05T13:51:48;2.60;;;2.40;;
70924;SDS011;58577;52.410;13.242;2022-07-05T13:54:14;2.85;;;2.55;;
70924;SDS011;58577;52.410;13.242;2022-07-05T13:56:40;3.10;;;2.45;;
70924;SDS011;58577;52.410;13.242;2022-07-05T13:59:06;3.00;;;2.80;;
70924;SDS011;58577;52.410;13.242;2022-07-05T14:01:31;2.88;;;2.60;;
70924;SDS011;58577;52.410;13.242;2022-07-05T14:03:57;3.78;;;2.60;;
70924;SDS011;58577;52.410;13.242;2022-07-05T14:06:26;3.33;;;2.67;;
70924;SDS011;58577;52.410;13.242;2022-07-05T14:08:52;2.95;;;2.50;;
70924;SDS011;58577;52.410;13.242;2022-07-05T14:11:17;2.65;;;2.40;;
70924;SDS011;58577;52.410;13.242;2022-07-05T14:13:43;2.95;;;2.50;;
70924;SDS011;58577;52.410;13.242;2022-07-05T14:16:08;3.03;;;2.72;;
70924;SDS011;58577;52.410;13.242;2022-07-05T14:18:34;5.00;;;2.80;;
70924;SDS011;58577;52.410;13.242;2022-07-05T14:21:00;4.40;;;2.30;;
70924;SDS011;58577;52.410;13.242;2022-07-05T14:23:26;4.07;;;2.42;;
70924;SDS011;58577;52.410;13.242;2022-07-05T14:25:52;5.10;;;2.50;;
70924;SDS011;58577;52.410;13.242;2022-07-05T14:28:17;6.00;;;3.45;;
70924;SDS011;58577;52.410;13.242;2022-07-05T14:30:43;2.97;;;2.70;;
70924;SDS011;58577;52.410;13.242;2022-07-05T14:33:10;3.72;;;2.47;;
70924;SDS011;58577;52.410;13.242;2022-07-05T14:35:37;3.03;;;2.55;;
70924;SDS011;58577;52.410;13.242;2022-07-05T14:38:04;3.63;;;2.53;;
70924;SDS011;58577;52.410;13.242;2022-07-05T14:40:30;4.03;;;2.42;;
70924;SDS011;58577;52.410;13.242;2022-07-05T14:42:56;2.65;;;2.42;;
70924;SDS011;58577;52.410;13.242;2022-07-05T14:45:23;2.85;;;2.28;;
70924;SDS011;58577;52.410;13.242;2022-07-05T14:47:49;4.65;;;2.50;;
70924;SDS011;58577;52.410;13.242;2022-07-05T14:50:14;2.78;;;2.58;;
70924;SDS011;58577;52.410;13.242;2022-07-05T14:52:40;3.92;;;2.50;;
70924;SDS011;58577;52.410;13.242;2022-07-05T14:55:07;3.22;;;2.42;;
70924;SDS011;58577;52.410;13.242;2022-07-05T14:57:34;3.78;;;2.83;;
70924;SDS011;58577;52.410;13.242;2022-07-05T15:00:04;2.80;;;2.47;;
70924;SDS011;58577;52.410;13.242;2022-07-05T15:02:31;2.75;;;2.40;;
70924;SDS011;58577;52.410;13.242;2022-07-05T15:04:57;3.03;;;2.60;;
70924;SDS011;58577;52.410;13.242;2022-07-05T15:07:22;8.90;;;4.85;;
70924;SDS011;58577;52.410;13.242;2022-07-05T15:09:48;4.82;;;2.80;;
70924;SDS011;58577;52.410;13.242;2022-07-05T15:12:13;4.60;;;2.60;;
70924;SDS011;58577;52.410;13.242;2022-07-05T15:14:39;3.70;;;3.03;;
70924;SDS011;58577;52.410;13.242;2022-07-05T15:17:04;2.70;;;2.50;;
70924;SDS011;58577;52.410;13.242;2022-07-05T15:19:30;3.13;;;2.80;;
70924;SDS011;58577;52.410;13.242;2022-07-05T15:21:55;4.97;;;2.50;;